Home > Products > Valid Products > TAF

000
FTUS43 KUNR 201100
TAFRAP
TAF
KRAP 201120Z 2012/2112 33007KT P6SM FEW120
     FM201700 34025G35KT P6SM SKC
     FM210100 33010KT P6SM SKC=



000
FTUS43 KUNR 201100
TAFGCC
TAF
KGCC 201120Z 2012/2112 28007KT P6SM FEW120
     FM201500 34018G24KT P6SM SKC
     FM202300 36007KT P6SM SKC=



000
FTUS43 KUNR 200500
TAFGCC
TAF
KGCC 200520Z 2006/2106 VRB05KT P6SM SCT100
     FM201500 34018KT P6SM SKC=



000
FTUS43 KUNR 200500
TAFRAP
TAF
KRAP 200520Z 2006/2106 33007KT P6SM BKN120
     FM201700 34024G34KT P6SM SKC=



000
FTUS43 KUNR 192300
TAFRAP
TAF
KRAP 192320Z 2000/2024 35010KT P6SM SCT100
     FM201600 34014G24KT P6SM SCT060=



000
FTUS43 KUNR 192300
TAFGCC
TAF
KGCC 192320Z 2000/2024 31010KT P6SM SCT080
     FM201400 34016KT P6SM SCT050=



000
FTUS43 KUNR 192000 AAA
TAFRAP
TAF AMD
KRAP 192035Z 1921/2018 35012KT P6SM SCT080 SCT250
     FM200100 34006KT P6SM SCT250=



000
FTUS43 KUNR 191700
TAFGCC
TAF
KGCC 191721Z 1918/2018 33010KT P6SM SCT250
     FM200100 VRB05KT P6SM SCT250=



000
FTUS43 KUNR 191700
TAFRAP
TAF
KRAP 191721Z 1918/2018 35012KT P6SM SCT250
     FM200100 34006KT P6SM SCT250=



000
FTUS43 KUNR 191100
TAFGCC
TAF
KGCC 191120Z 1912/2012 32010KT P6SM BKN120
     FM191800 35012KT P6SM SCT250=



000
FTUS43 KUNR 191100
TAFRAP
TAF
KRAP 191120Z 1912/2012 33012KT P6SM BKN120
     FM191800 36015KT P6SM SCT250=



000
FTUS43 KUNR 190600 AAB
TAFRAP
TAF AMD
KRAP 190624Z 1906/2006 35015G25KT P6SM BKN150 WS015/21045KT
     FM190900 34012KT P6SM BKN150
     FM192100 01010KT P6SM BKN060=



000
FTUS43 KUNR 190500 AAA
TAFRAP
TAF AMD
KRAP 190542Z 1906/2006 35010KT P6SM BKN150 WS015/21045KT
     FM190900 34012KT P6SM BKN150
     FM192100 01010KT P6SM BKN060=



000
FTUS43 KUNR 190500
TAFRAP
TAF
KRAP 190520Z 1906/2006 19010KT P6SM BKN150 WS015/21045KT
     FM190900 34012KT P6SM BKN150
     FM192100 01010KT P6SM BKN060=



000
FTUS43 KUNR 190500
TAFGCC
TAF
KGCC 190520Z 1906/2006 34014G24KT P6SM VCSH BKN100
     FM190800 32010KT P6SM BKN100
     FM192000 32009KT P6SM BKN060=



000
FTUS43 KUNR 182300
TAFGCC
TAF
KGCC 182320Z 1900/1924 01008KT P6SM BKN200
     FM190400 34014G24KT P6SM BKN100
     FM190800 32012KT P6SM BKN120=



000
FTUS43 KUNR 182300
TAFRAP
TAF
KRAP 182320Z 1900/1924 15010KT P6SM BKN200
     FM190400 19010KT P6SM BKN150 WS015/21045KT
     FM190900 34012KT P6SM BKN150=



000
FTUS43 KUNR 181700
TAFRAP
TAF
KRAP 181738Z 1818/1918 15008KT P6SM BKN200
     FM190400 20012KT P6SM BKN200
     FM191200 34012KT P6SM BKN200=



000
FTUS43 KUNR 181700
TAFGCC
TAF
KGCC 181738Z 1818/1918 20010KT P6SM BKN200
     FM190500 34014G24KT P6SM OVC200=



000
FTUS43 KUNR 181400 AAB
TAFRAP
TAF AMD
KRAP 181447Z 1815/1912 13005KT P6SM FEW120
     FM181600 16014KT P6SM SCT120=



000
FTUS43 KUNR 181400 AAB
TAFGCC
TAF AMD
KGCC 181447Z 1815/1912 18010KT P6SM SCT200
     FM190000 34011KT P6SM BKN120=



000
FTUS43 KUNR 181200 AAA
TAFRAP
TAF AMD
KRAP 181257Z 1813/1912 13005KT P6SM FEW120
      TEMPO 1813/1815 6SM BR
     FM181500 16014KT P6SM SCT120=



000
FTUS43 KUNR 181200 AAA
TAFGCC
TAF AMD
KGCC 181256Z 1813/1912 23017KT P6SM SCT200
     FM190000 34011KT P6SM BKN120=



000
FTUS43 KUNR 181100
TAFGCC
TAF
KGCC 181120Z 1812/1912 18015KT P6SM SCT120
     FM181800 23017KT P6SM SCT200
     FM190000 34011KT P6SM BKN120=



000
FTUS43 KUNR 181100
TAFRAP
TAF
KRAP 181120Z 1812/1912 13005KT P6SM FEW120
      TEMPO 1812/1815 1SM BR VV001
     FM181600 16014KT P6SM SCT120=



000
FTUS43 KUNR 181100 AAA
TAFRAP
TAF AMD
KRAP 181116Z 1811/1906 15003KT P6SM FEW120
      TEMPO 1811/1815 1SM BR VV001
     FM181600 16014KT P6SM SCT120=



000
FTUS43 KUNR 180500
TAFRAP
TAF
KRAP 180520Z 1806/1906 VRB05KT P6SM SCT120
     FM181700 16014KT P6SM SCT120=



000
FTUS43 KUNR 180500
TAFGCC
TAF
KGCC 180520Z 1806/1906 18012KT P6SM SCT120=



000
FTUS43 KUNR 172300
TAFGCC
TAF
KGCC 172320Z 1800/1824 04007KT P6SM SCT120
     FM180400 18011KT P6SM SCT120=



000
FTUS43 KUNR 172300
TAFRAP
TAF
KRAP 172320Z 1800/1824 13009KT P6SM SCT120=



000
FTUS43 KUNR 171700
TAFRAP
TAF
KRAP 171720Z 1718/1818 10010KT P6SM SCT120
     FM180000 VRB05KT P6SM SCT120=



000
FTUS43 KUNR 171700
TAFGCC
TAF
KGCC 171720Z 1718/1818 VRB05KT P6SM SCT120
     FM180400 18011KT P6SM SCT150=



    US Dept of Commerce
    National Oceanic and Atmospheric Administration
    National Weather Service
    1325 East West Highway
    Silver Spring, MD 20910
    Page Author: NWS Internet Services Team
Disclaimer
Information Quality
Credits
Glossary
Privacy Policy
Freedom of Information Act (FOIA)
About Us
Career Opportunities